Time;durP1;ratioP1;P1;durP2;ratioP2;P2;SDS_P1;SDS_P2;PMS_P1;PMS_P2;Temp;Humidity;BMP_temperature;BMP_pressure;BME280_temperature;BME280_humidity;BME280_pressure;Samples;Min_cycle;Max_cycle;Signal;HPM_P1;HPM_P2
2022/01/12 00:01:59;;;;;;;;;62.33;49.00;;;;;2.57;75.90;102965.66;5118315;27;45313;-77
2022/01/12 00:04:24;;;;;;;;;70.33;52.00;;;;;2.50;75.73;102952.97;5088746;27;47006;-77
2022/01/12 00:06:50;;;;;;;;;66.00;52.00;;;;;2.53;75.91;102950.63;5140365;27;45260;-79
2022/01/12 00:09:15;;;;;;;;;63.67;48.33;;;;;2.52;76.46;102953.13;5140319;27;45259;-80
2022/01/12 00:11:41;;;;;;;;;60.33;49.00;;;;;2.21;76.21;102903.97;5121443;27;45295;-77
2022/01/12 00:14:06;;;;;;;;;66.67;51.00;;;;;2.48;76.03;102953.66;5140017;27;45289;-80
2022/01/12 00:16:32;;;;;;;;;61.33;47.67;;;;;2.46;76.52;102950.94;5140611;27;45219;-80
2022/01/12 00:18:58;;;;;;;;;58.33;43.67;;;;;2.21;76.61;102903.06;5139523;27;45267;-77
2022/01/12 00:21:24;;;;;;;;;62.67;50.00;;;;;2.19;76.57;102899.44;5128625;27;45464;-77
2022/01/12 00:23:49;;;;;;;;;64.67;53.00;;;;;2.47;76.01;102960.56;5118597;27;45423;-77
2022/01/12 00:34:28;;;;;;;;;68.33;52.33;;;;;2.38;76.93;102967.66;5118656;27;45285;-78
2022/01/12 00:36:54;;;;;;;;;70.00;52.00;;;;;2.23;76.98;102941.41;5118787;27;45157;-80
2022/01/12 00:39:19;;;;;;;;;55.33;46.00;;;;;2.35;76.70;102948.34;5118480;27;45426;-78
2022/01/12 00:41:45;;;;;;;;;64.67;47.67;;;;;2.35;76.88;102940.53;5118275;27;45454;-74
2022/01/12 00:44:21;;;;;;;;;68.67;52.67;;;;;2.40;76.57;102944.38;5119308;27;45632;-76
2022/01/12 00:46:46;;;;;;;;;61.33;49.00;;;;;2.54;76.51;102967.16;5118517;27;45296;-80
2022/01/12 00:49:12;;;;;;;;;62.67;51.33;;;;;2.55;76.52;102964.66;5118323;27;46405;-76
2022/01/12 00:51:39;;;;;;;;;70.33;51.00;;;;;2.32;76.86;102935.06;5099722;27;45573;-79
2022/01/12 00:54:06;;;;;;;;;68.33;53.00;;;;;2.50;76.72;102968.59;5118424;27;45247;-79
2022/01/12 00:56:32;;;;;;;;;68.33;52.33;;;;;2.43;77.35;102965.44;5118275;27;45205;-78
2022/01/12 00:58:57;;;;;;;;;69.00;49.00;;;;;2.55;76.94;102995.88;5118255;27;46340;-77
2022/01/12 01:01:24;;;;;;;;;58.33;47.67;;;;;2.50;77.16;102973.78;5119443;27;45302;-79
2022/01/12 01:03:50;;;;;;;;;70.67;54.33;;;;;2.55;77.23;102987.16;5121732;27;45409;-77
2022/01/12 01:06:16;;;;;;;;;64.67;49.67;;;;;2.41;76.91;102978.28;5121678;27;45302;-80
2022/01/12 01:08:43;;;;;;;;;59.00;47.67;;;;;2.59;76.96;103017.81;5121622;27;46044;-80
2022/01/12 01:11:13;;;;;;;;;62.67;51.00;;;;;2.43;76.93;102978.44;5121115;27;45390;-79
2022/01/12 01:13:46;;;;;;;;;66.33;52.33;;;;;2.60;76.76;102979.69;5121328;27;45370;-80
2022/01/12 01:27:15;;;;;;;;;60.67;47.00;;;;;2.77;76.27;103029.63;5121510;27;45531;-79
2022/01/12 01:29:41;;;;;;;;;68.33;47.00;;;;;2.63;76.93;103004.28;5121303;27;46286;-76
2022/01/12 01:32:08;;;;;;;;;70.67;50.00;;;;;2.67;76.91;103024.50;5121113;27;45372;-79
2022/01/12 01:34:34;;;;;;;;;61.00;48.00;;;;;2.77;76.26;103040.03;5121210;27;45470;-79
2022/01/12 01:36:59;;;;;;;;;64.00;48.67;;;;;2.70;76.66;103023.81;5121555;27;45282;-80
2022/01/12 01:39:27;;;;;;;;;63.00;49.33;;;;;2.62;76.54;103015.47;5102414;27;47683;-78
2022/01/12 01:41:57;;;;;;;;;52.33;47.00;;;;;2.65;76.58;103028.69;5121230;27;45157;-78
2022/01/12 01:53:20;;;;;;;;;63.33;48.33;;;;;2.78;76.06;103054.84;5121226;27;45365;-76
2022/01/12 01:55:37;;;;;;;;;68.67;53.33;;;;;2.80;76.35;103045.50;5121076;27;45195;-77
2022/01/12 01:58:03;;;;;;;;;68.33;52.67;;;;;2.80;75.87;103042.88;5121143;27;45369;-77
2022/01/12 02:00:31;;;;;;;;;69.33;55.67;;;;;2.79;76.33;103034.94;5120917;27;46360;-77
2022/01/12 02:02:57;;;;;;;;;62.33;46.33;;;;;2.53;76.31;102994.84;5101180;27;45553;-77
2022/01/12 02:05:24;;;;;;;;;67.33;50.00;;;;;2.84;76.57;103050.13;5100531;27;45247;-77
2022/01/12 02:07:49;;;;;;;;;72.00;53.00;;;;;2.72;76.24;103022.28;5100629;27;45314;-79
2022/01/12 02:10:15;;;;;;;;;62.67;48.33;;;;;2.81;76.29;103034.28;5099979;27;45672;-78
2022/01/12 02:12:40;;;;;;;;;71.67;53.00;;;;;2.54;76.36;102983.66;5117700;27;45275;-78
2022/01/12 02:15:18;;;;;;;;;63.00;52.33;;;;;2.80;76.33;103021.16;5121632;27;45408;-79
2022/01/12 02:36:58;;;;;;;;;56.00;45.67;;;;;2.72;76.05;103002.38;5099677;27;45419;-77
2022/01/12 02:42:08;;;;;;;;;59.33;46.00;;;;;2.64;76.01;102989.56;5100289;27;45935;-83
2022/01/12 02:55:32;;;;;;;;;68.00;46.67;;;;;2.48;76.50;102962.38;5099276;27;45238;-81
2022/01/12 02:57:58;;;;;;;;;54.33;43.33;;;;;2.53;76.51;102980.94;5099529;27;45286;-81
2022/01/12 03:00:29;;;;;;;;;53.00;46.67;;;;;2.50;76.75;102976.41;5099515;27;45207;-80
2022/01/12 03:03:02;;;;;;;;;60.33;50.33;;;;;2.41;77.06;102975.69;5117572;27;45630;-82
2022/01/12 03:05:34;;;;;;;;;69.00;49.00;;;;;2.43;77.26;102965.44;5119955;27;45393;-80
2022/01/12 03:08:09;;;;;;;;;63.00;49.67;;;;;2.54;77.38;102986.25;5120052;27;45249;-83
2022/01/12 03:10:34;;;;;;;;;56.00;46.00;;;;;2.47;77.44;102972.66;5121023;27;45274;-80
2022/01/12 03:12:59;;;;;;;;;66.00;50.67;;;;;2.46;77.26;102976.06;5140150;27;46438;-80
2022/01/12 03:15:25;;;;;;;;;56.00;45.00;;;;;2.52;76.90;103006.06;5140725;27;45240;-82
2022/01/12 03:17:50;;;;;;;;;53.67;45.00;;;;;2.53;76.70;103013.06;5140834;27;45387;-80
2022/01/12 03:20:16;;;;;;;;;47.67;45.00;;;;;2.49;76.91;103010.09;5140724;27;45380;-83
2022/01/12 03:22:41;;;;;;;;;59.67;46.33;;;;;2.70;76.97;103042.97;5140260;27;45323;-82
2022/01/12 03:25:07;;;;;;;;;52.00;43.67;;;;;2.72;76.60;103041.41;5139282;27;45309;-81
2022/01/12 03:27:32;;;;;;;;;59.33;48.33;;;;;2.51;76.46;102999.03;5140477;27;45498;-82
2022/01/12 03:29:58;;;;;;;;;67.00;49.00;;;;;2.75;76.37;103035.50;5140157;27;45336;-80
2022/01/12 03:32:36;;;;;;;;;56.33;44.67;;;;;2.79;76.37;103027.13;5140033;27;45303;-82
2022/01/12 03:35:12;;;;;;;;;59.00;43.67;;;;;2.79;75.99;103032.34;5140171;27;45289;-82
2022/01/12 03:37:54;;;;;;;;;69.00;52.67;;;;;2.79;76.06;103024.53;5140149;27;45223;-81
2022/01/12 03:40:20;;;;;;;;;58.67;45.67;;;;;2.66;76.38;103009.69;5140423;27;45332;-82
2022/01/12 03:42:46;;;;;;;;;55.33;44.33;;;;;2.58;76.64;102996.09;5139607;27;45306;-81
2022/01/12 03:45:11;;;;;;;;;70.67;47.00;;;;;2.78;76.32;103025.31;5139923;27;45180;-81
2022/01/12 03:47:37;;;;;;;;;67.67;46.67;;;;;2.55;76.57;102981.97;5139595;27;45487;-80
2022/01/12 03:50:03;;;;;;;;;48.33;44.00;;;;;2.73;76.83;103022.38;5140185;27;45483;-80
2022/01/12 03:52:28;;;;;;;;;64.00;46.00;;;;;2.54;76.91;103009.69;5139811;27;48220;-81
2022/01/12 03:54:54;;;;;;;;;64.67;49.33;;;;;2.59;76.39;103015.22;5140031;27;45245;-78
2022/01/12 03:57:19;;;;;;;;;56.00;44.67;;;;;2.78;77.03;103043.53;5139929;27;45488;-77
2022/01/12 03:59:45;;;;;;;;;60.33;41.33;;;;;2.47;76.54;102993.47;5140355;27;45202;-78
2022/01/12 04:02:10;;;;;;;;;42.67;37.33;;;;;2.69;76.31;103042.84;5139099;27;46113;-78
2022/01/12 04:04:52;;;;;;;;;57.00;42.33;;;;;2.73;77.01;103063.13;5139968;27;45361;-78
2022/01/12 04:10:02;;;;;;;;;52.33;41.67;;;;;2.42;76.95;103006.16;5140711;27;45286;-80
2022/01/12 04:12:28;;;;;;;;;60.00;49.33;;;;;2.50;76.32;103030.13;5140350;27;45229;-78
2022/01/12 04:14:54;;;;;;;;;55.33;44.67;;;;;2.51;77.00;103050.16;5139905;27;45163;-78
2022/01/12 04:17:19;;;;;;;;;57.33;49.00;;;;;2.76;76.79;103094.56;5140052;27;45463;-77
2022/01/12 04:19:45;;;;;;;;;50.33;41.33;;;;;2.57;76.96;103053.22;5121196;27;45337;-78
2022/01/12 04:24:54;;;;;;;;;56.67;46.67;;;;;2.47;76.22;103055.91;5139002;27;45504;-78
2022/01/12 04:27:19;;;;;;;;;57.00;47.00;;;;;2.47;76.89;103054.22;5138999;27;45414;-78
2022/01/12 04:29:45;;;;;;;;;53.33;42.00;;;;;2.53;77.29;103077.22;5139555;27;45208;-78
2022/01/12 04:32:10;;;;;;;;;58.67;47.33;;;;;2.57;76.29;103090.56;5139378;27;45481;-78
2022/01/12 04:34:36;;;;;;;;;62.33;47.00;;;;;2.56;76.39;103082.63;5139807;27;45431;-80
2022/01/12 04:37:01;;;;;;;;;56.33;42.00;;;;;2.67;77.15;103114.69;5142892;27;45274;-79
2022/01/12 04:39:27;;;;;;;;;50.00;45.33;;;;;2.65;77.17;103108.47;5143363;27;45391;-80
2022/01/12 04:41:53;;;;;;;;;56.33;43.00;;;;;2.71;77.16;103112.47;5142219;27;46043;-79
2022/01/12 04:44:18;;;;;;;;;50.33;46.33;;;;;2.63;76.41;103104.84;5142987;27;45275;-80
2022/01/12 04:46:52;;;;;;;;;55.00;41.00;;;;;2.48;76.80;103073.34;5142852;27;45706;-78
2022/01/12 04:51:51;;;;;;;;;57.33;42.67;;;;;2.72;76.77;103111.66;5142347;27;45335;-78
2022/01/12 04:54:17;;;;;;;;;61.00;47.00;;;;;2.63;76.41;103104.84;5142875;27;45399;-80
2022/01/12 04:56:42;;;;;;;;;53.33;42.67;;;;;2.73;76.40;103116.06;5142809;27;45226;-79
2022/01/12 04:59:07;;;;;;;;;56.00;45.33;;;;;2.61;76.68;103101.22;5142826;27;45501;-82
2022/01/12 05:01:36;;;;;;;;;59.67;47.00;;;;;2.62;76.97;103103.94;5142253;27;45481;-79
2022/01/12 05:07:23;;;;;;;;;55.33;43.33;;;;;2.73;76.31;103143.81;5142453;27;45248;-80
2022/01/12 05:15:01;;;;;;;;;50.67;45.33;;;;;2.69;76.27;103152.13;5037392;28;45389;-81
2022/01/12 05:17:28;;;;;;;;;59.67;45.00;;;;;2.62;76.39;103149.88;5038124;28;45364;-78
2022/01/12 05:19:53;;;;;;;;;59.67;44.33;;;;;2.51;76.34;103129.13;5038335;28;45205;-80
2022/01/12 05:22:19;;;;;;;;;49.67;45.33;;;;;2.59;76.62;103134.91;5037855;28;46088;-80
2022/01/12 05:24:45;;;;;;;;;57.00;44.00;;;;;2.48;76.97;103121.06;5037670;28;45372;-80
2022/01/12 05:27:10;;;;;;;;;53.00;42.00;;;;;2.47;76.99;103110.53;5038010;28;45781;-82
2022/01/12 05:29:36;;;;;;;;;42.67;38.00;;;;;2.31;76.56;103072.00;5037791;28;45437;-78
2022/01/12 05:32:01;;;;;;;;;53.67;41.00;;;;;2.60;76.83;103118.50;5037660;28;45563;-79
2022/01/12 05:34:27;;;;;;;;;66.00;47.33;;;;;2.43;76.39;103098.09;5037561;28;45389;-79
2022/01/12 05:36:53;;;;;;;;;63.33;49.00;;;;;2.53;76.16;103113.63;5037931;28;45549;-79
2022/01/12 05:39:18;;;;;;;;;54.67;46.00;;;;;2.48;76.83;103107.16;5037837;28;45452;-79
2022/01/12 05:41:43;;;;;;;;;53.67;44.67;;;;;2.36;76.58;103090.59;5037043;28;45505;-78
2022/01/12 05:44:10;;;;;;;;;48.67;40.67;;;;;2.25;76.88;103080.25;5037519;28;45495;-79
2022/01/12 05:46:39;;;;;;;;;49.00;42.33;;;;;2.17;76.87;103077.84;5036883;28;45286;-78
2022/01/12 05:51:51;;;;;;;;;52.00;43.67;;;;;2.37;77.15;103124.53;5078651;27;45861;-78
2022/01/12 05:54:16;;;;;;;;;56.00;43.00;;;;;2.20;76.87;103091.06;5121284;27;45348;-80
2022/01/12 05:56:42;;;;;;;;;47.67;41.00;;;;;2.28;77.22;103105.59;5121340;27;45403;-82
2022/01/12 05:59:07;;;;;;;;;46.67;40.00;;;;;2.37;77.25;103121.91;5123692;27;45510;-83
2022/01/12 06:01:33;;;;;;;;;57.00;45.33;;;;;2.35;77.76;103135.59;5140868;27;45615;-82
2022/01/12 06:03:58;;;;;;;;;56.67;45.00;;;;;2.29;77.88;103141.22;5144280;27;45394;-78
2022/01/12 06:06:24;;;;;;;;;52.33;42.00;;;;;2.30;78.09;103148.22;5143136;27;46094;-80
2022/01/12 06:08:49;;;;;;;;;57.33;45.33;;;;;2.29;77.60;103144.72;5143457;27;45395;-80
2022/01/12 06:11:15;;;;;;;;;59.67;46.00;;;;;2.29;77.72;103142.13;5142922;27;46213;-82
2022/01/12 06:13:41;;;;;;;;;38.00;36.00;;;;;2.27;77.95;103133.28;5142099;27;45232;-79
2022/01/12 06:16:07;;;;;;;;;63.67;45.33;;;;;2.31;77.53;103141.31;5142691;27;45226;-77
2022/01/12 06:18:32;;;;;;;;;57.67;41.33;;;;;2.31;78.07;103136.13;5143152;27;45237;-78
2022/01/12 06:20:58;;;;;;;;;44.00;41.67;;;;;2.31;77.72;103138.72;5142605;27;46013;-78
2022/01/12 06:23:23;;;;;;;;;48.00;43.67;;;;;2.08;77.69;103092.72;5142671;27;45215;-80
2022/01/12 06:25:49;;;;;;;;;45.67;40.00;;;;;2.31;78.24;103143.94;5142196;27;45251;-78
2022/01/12 06:28:24;;;;;;;;;49.33;42.33;;;;;2.26;77.93;103133.19;5141757;27;45361;-78
2022/01/12 06:33:49;;;;;;;;;53.67;44.67;;;;;2.01;77.92;103086.13;5077065;28;45385;-77
2022/01/12 06:36:20;;;;;;;;;54.67;44.33;;;;;2.27;78.90;103137.59;5077148;28;45353;-77
2022/01/12 06:38:46;;;;;;;;;48.67;38.00;;;;;1.58;78.00;103014.22;5076984;28;45420;-76
2022/01/12 06:41:13;;;;;;;;;52.67;44.67;;;;;2.34;78.68;103149.41;5065940;28;45490;-77
2022/01/12 06:43:38;;;;;;;;;60.33;41.00;;;;;1.96;78.18;103072.75;5061824;28;45611;-74
2022/01/12 06:46:04;;;;;;;;;58.33;46.00;;;;;2.03;78.44;103083.63;5066389;28;45403;-77
2022/01/12 06:48:31;;;;;;;;;57.67;45.00;;;;;2.20;78.30;103114.47;5060125;28;45465;-75
2022/01/12 06:50:57;;;;;;;;;58.00;48.33;;;;;2.36;78.66;103142.63;5076688;28;46090;-79
2022/01/12 06:53:22;;;;;;;;;64.67;47.00;;;;;2.32;78.96;103149.25;5076715;28;45188;-78
2022/01/12 06:55:48;;;;;;;;;62.33;49.33;;;;;2.40;78.47;103160.25;5076857;28;45349;-78
2022/01/12 06:58:13;;;;;;;;;48.00;42.33;;;;;2.46;78.52;103171.16;5077319;28;45297;-79
2022/01/12 07:00:39;;;;;;;;;43.00;35.67;;;;;2.50;78.62;103162.81;5076518;28;45305;-80
2022/01/12 07:03:05;;;;;;;;;66.33;45.67;;;;;2.50;77.87;103145.50;5075613;28;45351;-79
2022/01/12 07:05:30;;;;;;;;;63.33;45.00;;;;;2.26;78.22;103104.56;5075829;28;45494;-79
2022/01/12 07:07:56;;;;;;;;;53.00;37.33;;;;;2.41;77.79;103139.56;5076662;28;45361;-80
2022/01/12 07:10:21;;;;;;;;;44.67;41.00;;;;;2.03;77.36;103070.63;5114670;27;45520;-79
2022/01/12 07:12:46;;;;;;;;;57.33;45.33;;;;;2.33;77.79;103125.09;5119742;27;45310;-79
2022/01/12 07:15:12;;;;;;;;;62.33;43.00;;;;;2.24;77.80;103112.25;5119759;27;45284;-79
2022/01/12 07:17:37;;;;;;;;;52.33;45.00;;;;;2.47;78.30;103146.97;5119190;27;45327;-78
2022/01/12 07:20:04;;;;;;;;;45.00;37.00;;;;;2.35;78.10;103118.31;5119448;27;45425;-78
2022/01/12 07:22:30;;;;;;;;;52.33;42.00;;;;;2.26;78.20;103115.88;5119329;27;45408;-78
2022/01/12 07:24:55;;;;;;;;;46.67;39.33;;;;;2.19;78.49;103115.25;5119379;27;45321;-78
2022/01/12 07:27:21;;;;;;;;;58.67;46.67;;;;;2.22;78.42;103112.91;5118990;27;45262;-78
2022/01/12 07:29:46;;;;;;;;;53.33;42.33;;;;;2.26;78.54;103128.88;5119364;27;45993;-78
2022/01/12 07:32:12;;;;;;;;;53.00;43.67;;;;;2.15;78.84;103121.03;5119359;27;45356;-78
2022/01/12 07:34:38;;;;;;;;;51.67;45.00;;;;;2.26;78.90;103154.88;5119568;27;45397;-77
2022/01/12 07:37:03;;;;;;;;;49.67;41.67;;;;;2.06;78.77;103118.59;5119462;27;45366;-78
2022/01/12 07:39:29;;;;;;;;;64.00;48.00;;;;;2.05;78.74;103122.00;5117759;27;47401;-78
2022/01/12 07:41:55;;;;;;;;;55.33;40.33;;;;;1.97;79.34;103123.97;5119067;27;45199;-78
2022/01/12 07:44:21;;;;;;;;;51.33;43.00;;;;;1.93;78.86;103126.19;5119345;27;45140;-78
2022/01/12 07:46:50;;;;;;;;;45.00;44.00;;;;;2.04;79.31;103150.44;5119270;27;45278;-78
2022/01/12 07:49:15;;;;;;;;;42.00;41.00;;;;;2.22;79.11;103185.72;5119263;27;46122;-78
2022/01/12 07:51:41;;;;;;;;;56.00;46.00;;;;;2.23;79.76;103190.13;5119221;27;45416;-77
2022/01/12 07:54:06;;;;;;;;;71.00;49.00;;;;;2.19;79.53;103178.59;5119010;27;45314;-78
2022/01/12 07:56:32;;;;;;;;;58.33;46.00;;;;;2.25;79.46;103189.47;5119026;27;45309;-78
2022/01/12 07:58:57;;;;;;;;;57.00;46.33;;;;;2.27;78.98;103192.19;5100050;27;45601;-78
2022/01/12 08:01:23;;;;;;;;;50.33;45.33;;;;;2.36;78.98;103207.63;5118551;27;45303;-78
2022/01/12 08:03:49;;;;;;;;;63.33;47.00;;;;;2.27;79.03;103187.00;5117972;27;45387;-79
2022/01/12 08:06:14;;;;;;;;;56.33;43.67;;;;;2.07;78.52;103162.00;5119088;27;45253;-78
2022/01/12 08:08:40;;;;;;;;;63.33;50.00;;;;;2.12;79.66;103176.25;5118761;27;45320;-78
2022/01/12 08:11:05;;;;;;;;;66.00;49.33;;;;;2.21;79.02;103184.81;5118163;27;45349;-78
2022/01/12 08:13:31;;;;;;;;;54.33;45.00;;;;;2.22;78.95;103189.22;5118809;27;45525;-78
2022/01/12 08:15:56;;;;;;;;;64.33;46.33;;;;;2.25;78.48;103181.69;5119195;27;45459;-79
2022/01/12 08:18:22;;;;;;;;;69.00;50.33;;;;;2.44;78.34;103217.88;5118794;27;46007;-78
2022/01/12 08:20:47;;;;;;;;;61.33;45.67;;;;;2.49;78.63;103234.75;5118582;27;45431;-79
2022/01/12 08:23:13;;;;;;;;;56.67;46.00;;;;;2.51;78.30;103228.00;5118587;27;45260;-78
2022/01/12 08:25:40;;;;;;;;;63.00;47.33;;;;;2.67;78.19;103250.00;5118924;27;45353;-78
2022/01/12 08:28:06;;;;;;;;;67.67;50.00;;;;;2.59;77.79;103236.38;5118012;27;45435;-78
2022/01/12 08:30:33;;;;;;;;;65.00;51.67;;;;;2.60;77.99;103227.78;5118866;27;45257;-78
2022/01/12 08:32:59;;;;;;;;;60.33;46.67;;;;;2.71;77.67;103226.97;5117222;27;45269;-79
2022/01/12 08:35:25;;;;;;;;;60.67;47.00;;;;;2.62;76.92;103201.91;5118670;27;45342;-79
2022/01/12 08:37:50;;;;;;;;;63.00;49.33;;;;;2.57;77.16;103198.94;5118290;27;45463;-79
2022/01/12 08:40:18;;;;;;;;;65.67;49.67;;;;;2.67;76.75;103229.19;5118305;27;45294;-78
2022/01/12 08:42:45;;;;;;;;;68.00;48.67;;;;;2.81;77.02;103252.94;5118007;27;45324;-79
2022/01/12 08:45:12;;;;;;;;;58.33;50.00;;;;;3.05;76.58;103292.09;5119508;27;45448;-78
2022/01/12 08:47:38;;;;;;;;;55.33;41.33;;;;;2.71;76.63;103198.34;5117195;27;45522;-78
2022/01/12 08:50:04;;;;;;;;;64.00;48.33;;;;;3.29;76.73;103273.19;5118757;27;45219;-78
2022/01/12 08:52:30;;;;;;;;;71.33;51.67;;;;;3.25;75.80;103255.47;5118266;27;45145;-79
2022/01/12 08:54:57;;;;;;;;;58.67;43.67;;;;;3.42;75.28;103277.63;5118349;27;45238;-78
2022/01/12 08:57:22;;;;;;;;;59.67;47.67;;;;;3.47;75.44;103272.78;5117909;27;46311;-78
2022/01/12 08:59:48;;;;;;;;;59.67;37.00;;;;;3.35;74.15;103244.06;5126961;27;45372;-79
2022/01/12 09:02:14;;;;;;;;;51.67;45.33;;;;;3.60;74.93;103265.09;5119547;27;45325;-76
2022/01/12 09:04:42;;;;;;;;;61.67;47.67;;;;;3.83;74.00;103290.31;5118595;27;45234;-79
2022/01/12 09:07:11;;;;;;;;;51.33;42.67;;;;;3.92;73.59;103286.69;5117716;27;45794;-77
2022/01/12 09:09:36;;;;;;;;;77.33;55.33;;;;;3.96;73.30;103282.59;5118155;27;45480;-78
2022/01/12 09:12:03;;;;;;;;;63.00;47.67;;;;;3.79;72.63;103247.44;5118165;27;45279;-78
2022/01/12 09:14:29;;;;;;;;;62.00;49.67;;;;;3.89;72.82;103272.50;5118225;27;45251;-78
2022/01/12 09:16:57;;;;;;;;;68.00;55.00;;;;;3.97;73.53;103285.31;5117762;27;46400;-78
2022/01/12 09:19:23;;;;;;;;;49.00;40.67;;;;;3.97;72.82;103266.16;5117919;27;45262;-79
2022/01/12 09:21:49;;;;;;;;;67.67;49.00;;;;;4.30;72.78;103312.13;5118994;27;45179;-78
2022/01/12 09:24:15;;;;;;;;;74.00;53.00;;;;;4.35;72.50;103310.75;5121650;27;45361;-78
2022/01/12 09:26:41;;;;;;;;;67.67;52.67;;;;;4.25;71.86;103285.66;5121227;27;45218;-78
2022/01/12 09:29:07;;;;;;;;;71.67;54.33;;;;;4.41;71.26;103320.75;5121070;27;45392;-80
2022/01/12 09:31:32;;;;;;;;;60.67;50.67;;;;;4.48;71.38;103331.75;5121298;27;45292;-78
2022/01/12 09:33:58;;;;;;;;;66.00;49.00;;;;;4.26;71.70;103316.19;5121331;27;45276;-78
2022/01/12 09:36:24;;;;;;;;;65.00;51.00;;;;;4.35;71.81;103334.22;5121156;27;45783;-78
2022/01/12 09:38:50;;;;;;;;;58.67;47.33;;;;;4.35;71.64;103336.84;5120889;27;45377;-78
2022/01/12 09:41:15;;;;;;;;;65.67;50.33;;;;;4.36;71.64;103336.03;5121285;27;45296;-78
2022/01/12 09:43:42;;;;;;;;;42.00;39.00;;;;;4.34;71.28;103319.38;5121134;27;45354;-78
2022/01/12 09:46:09;;;;;;;;;65.33;49.00;;;;;4.60;71.11;103369.97;5120806;27;45651;-78
2022/01/12 09:48:36;;;;;;;;;64.67;52.33;;;;;4.45;70.64;103338.44;5121042;27;45168;-78
2022/01/12 09:51:09;;;;;;;;;60.67;48.67;;;;;4.48;71.09;103336.97;5120853;27;45397;-79
2022/01/12 09:53:37;;;;;;;;;67.33;50.67;;;;;4.28;70.21;103312.00;5121146;27;45325;-78
2022/01/12 09:56:11;;;;;;;;;65.33;48.00;;;;;4.66;70.96;103367.84;5120534;27;45603;-79
2022/01/12 09:58:36;;;;;;;;;64.33;52.33;;;;;4.33;71.10;103301.91;5120956;27;45274;-78
2022/01/12 10:01:03;;;;;;;;;66.67;49.67;;;;;4.68;70.47;103345.34;5121188;27;45882;-79
2022/01/12 10:03:28;;;;;;;;;66.33;51.00;;;;;4.54;70.03;103297.34;5121102;27;45477;-78
2022/01/12 10:05:55;;;;;;;;;73.67;53.33;;;;;4.93;69.81;103367.19;5121054;27;45528;-78
2022/01/12 10:08:20;;;;;;;;;71.67;54.00;;;;;4.86;70.07;103317.97;5120859;27;45478;-78
2022/01/12 10:11:07;;;;;;;;;63.67;50.67;;;;;5.26;68.53;103329.53;5121049;27;45328;-78
2022/01/12 10:13:32;;;;;;;;;66.67;53.00;;;;;5.21;68.52;103314.31;5121026;27;45391;-78
2022/01/12 10:16:16;;;;;;;;;70.67;55.33;;;;;5.38;68.17;103317.31;5120367;27;45304;-78
2022/01/12 10:18:50;;;;;;;;;70.33;54.00;;;;;5.69;68.02;103359.59;5102105;27;45374;-79
2022/01/12 10:21:37;;;;;;;;;70.67;53.00;;;;;5.71;67.95;103368.44;5119552;27;45325;-78
2022/01/12 10:24:11;;;;;;;;;66.33;52.33;;;;;5.65;67.58;103346.16;5120865;27;45205;-78
2022/01/12 10:26:42;;;;;;;;;65.00;50.67;;;;;5.44;67.41;103306.38;5119966;27;45898;-78
2022/01/12 10:29:20;;;;;;;;;64.00;51.67;;;;;5.75;67.33;103358.16;5120610;27;45302;-79
2022/01/12 10:31:47;;;;;;;;;76.67;58.00;;;;;5.69;67.50;103356.06;5120794;27;45454;-79
2022/01/12 10:34:17;;;;;;;;;68.67;54.00;;;;;5.63;67.58;103334.72;5120421;27;45222;-79
2022/01/12 10:36:44;;;;;;;;;71.33;58.00;;;;;5.73;65.95;103369.44;5120231;27;45455;-79
2022/01/12 10:39:12;;;;;;;;;70.67;54.00;;;;;5.67;67.22;103366.38;5101383;27;45416;-79
2022/01/12 10:42:02;;;;;;;;;71.67;57.33;;;;;5.42;67.99;103326.28;5120022;27;45291;-78
2022/01/12 10:44:34;;;;;;;;;73.00;55.67;;;;;5.32;67.20;103322.13;5036718;28;45416;-78
2022/01/12 10:47:12;;;;;;;;;68.00;51.67;;;;;5.31;67.37;103309.88;5020189;28;48038;-78
2022/01/12 10:49:42;;;;;;;;;75.33;57.00;;;;;5.67;67.54;103368.09;5036780;28;45422;-78
2022/01/12 10:52:13;;;;;;;;;77.00;57.00;;;;;5.63;67.44;103368.69;5057436;28;45303;-78
2022/01/12 10:54:51;;;;;;;;;70.00;56.00;;;;;5.46;66.80;103325.69;5057712;28;45539;-77
2022/01/12 10:57:28;;;;;;;;;70.00;55.00;;;;;5.41;67.37;103307.09;5057177;28;45437;-78
2022/01/12 11:00:22;;;;;;;;;65.33;54.33;;;;;5.57;67.08;103344.72;5058134;28;45365;-79
2022/01/12 11:02:50;;;;;;;;;76.33;58.33;;;;;5.69;67.42;103366.53;5040834;28;45369;-79
2022/01/12 11:05:17;;;;;;;;;69.33;54.33;;;;;5.66;67.08;103351.50;5059012;28;45281;-79
2022/01/12 11:07:43;;;;;;;;;66.00;51.00;;;;;5.83;66.94;103375.31;5057208;28;45587;-79
2022/01/12 11:10:11;;;;;;;;;77.00;59.00;;;;;5.80;66.74;103355.09;5057228;28;45456;-79
2022/01/12 11:12:37;;;;;;;;;71.67;56.00;;;;;5.68;67.17;103333.34;5057614;28;45363;-79
2022/01/12 11:15:11;;;;;;;;;66.67;54.67;;;;;5.91;66.86;103377.69;5057551;28;45276;-79
2022/01/12 11:17:40;;;;;;;;;66.67;56.00;;;;;5.91;66.91;103384.63;5057268;28;46360;-79
2022/01/12 11:20:18;;;;;;;;;70.00;53.33;;;;;5.92;65.99;103371.66;5056916;28;45328;-79
2022/01/12 11:22:44;;;;;;;;;81.00;57.00;;;;;5.92;66.14;103371.66;5120322;27;45305;-79
2022/01/12 11:25:32;;;;;;;;;68.33;55.00;;;;;5.78;66.77;103341.00;5120370;27;45408;-79
2022/01/12 11:28:23;;;;;;;;;71.67;55.33;;;;;5.97;66.16;103371.97;5120156;27;46626;-79
2022/01/12 11:30:51;;;;;;;;;67.67;53.00;;;;;6.03;66.94;103359.28;5120024;27;45346;-80
2022/01/12 11:33:19;;;;;;;;;70.00;57.33;;;;;5.91;65.72;103337.53;5143283;27;45334;-81
2022/01/12 11:35:47;;;;;;;;;71.00;57.00;;;;;5.51;66.30;103269.41;5156329;27;45140;-84
2022/01/12 11:38:39;;;;;;;;;17.67;1.67;;;;;5.70;66.11;103292.50;5149908;27;46607;-84
2022/01/12 11:41:12;;;;;;;;;76.67;58.33;;;;;5.87;66.51;103323.31;5120316;27;45295;-78
2022/01/12 11:43:46;;;;;;;;;69.67;56.33;;;;;6.05;66.04;103349.84;5127725;27;45252;-78
2022/01/12 11:46:23;;;;;;;;;71.00;53.00;;;;;5.95;66.03;103326.47;5145887;27;45401;-78
2022/01/12 11:48:50;;;;;;;;;66.67;53.33;;;;;6.14;66.64;103350.47;5136108;27;45553;-79
2022/01/12 11:51:19;;;;;;;;;82.00;64.33;;;;;6.08;65.58;103330.84;5137973;27;45270;-79
2022/01/12 11:53:49;;;;;;;;;79.33;61.67;;;;;6.21;65.75;103347.44;5145727;27;45301;-78
2022/01/12 11:56:21;;;;;;;;;76.33;56.67;;;;;6.14;66.41;103313.84;5128072;27;45207;-78
2022/01/12 11:58:53;;;;;;;;;74.33;56.00;;;;;6.32;65.15;103336.78;5122553;27;46617;-80
2022/01/12 12:01:19;;;;;;;;;75.67;57.67;;;;;6.12;65.56;103288.34;5126515;27;45380;-78
2022/01/12 12:03:59;;;;;;;;;73.67;59.33;;;;;6.29;65.24;103320.06;5125818;27;45844;-76
2022/01/12 12:06:27;;;;;;;;;68.00;55.00;;;;;6.05;65.20;103276.59;5125422;27;45482;-75
2022/01/12 12:09:09;;;;;;;;;72.33;57.00;;;;;6.34;65.12;103332.56;5136114;27;46399;-75
2022/01/12 12:11:34;;;;;;;;;69.33;56.33;;;;;6.10;65.01;103297.81;5125229;27;45206;-75
2022/01/12 12:14:05;;;;;;;;;68.00;54.67;;;;;6.23;65.46;103296.09;5127612;27;45381;-77
2022/01/12 12:16:33;;;;;;;;;72.67;57.33;;;;;6.36;65.05;103308.31;5125797;27;45372;-77
2022/01/12 12:19:02;;;;;;;;;65.67;55.67;;;;;6.51;65.23;103340.75;5121069;27;45394;-77
2022/01/12 12:21:27;;;;;;;;;70.33;55.67;;;;;6.21;65.19;103268.91;5124863;27;45313;-76
2022/01/12 12:23:53;;;;;;;;;66.67;52.00;;;;;6.54;65.31;103306.88;5124403;27;45435;-74
2022/01/12 12:26:19;;;;;;;;;67.67;54.33;;;;;6.73;65.08;103321.16;5129017;27;45584;-76
2022/01/12 12:28:53;;;;;;;;;65.33;54.00;;;;;6.80;64.86;103326.00;5124872;27;45616;-81
2022/01/12 12:31:26;;;;;;;;;74.33;57.00;;;;;6.73;64.46;103315.94;5146066;27;45392;-78
2022/01/12 12:34:05;;;;;;;;;66.67;54.67;;;;;6.56;63.86;103275.56;5136835;27;45342;-80
2022/01/12 12:36:31;;;;;;;;;63.67;51.33;;;;;6.70;64.22;103289.50;5143850;27;45430;-85
2022/01/12 12:39:08;;;;;;;;;66.33;54.67;;;;;6.80;64.28;103292.84;5146667;27;45429;-89
2022/01/12 12:41:39;;;;;;;;;62.67;50.33;;;;;6.66;63.85;103259.63;5127608;27;45720;-80
2022/01/12 12:44:06;;;;;;;;;66.67;51.00;;;;;6.91;63.64;103282.13;5125264;27;45442;-84